sensor_id;sensor_type;location;lat;lon;timestamp;P1;durP1;ratioP1;P2;durP2;ratioP2
4089;SDS011;2059;48.538;12.146;2022-09-19T02:00:16;1.40;;;1.40;;
4089;SDS011;2059;48.538;12.146;2022-09-19T02:05:23;1.93;;;1.83;;
4089;SDS011;2059;48.538;12.146;2022-09-19T02:10:36;1.57;;;1.57;;
4089;SDS011;2059;48.538;12.146;2022-09-19T02:15:44;1.40;;;1.40;;
4089;SDS011;2059;48.538;12.146;2022-09-19T02:20:50;1.50;;;1.50;;
4089;SDS011;2059;48.538;12.146;2022-09-19T02:25:55;1.70;;;1.70;;
4089;SDS011;2059;48.538;12.146;2022-09-19T02:31:01;1.67;;;1.57;;
4089;SDS011;2059;48.538;12.146;2022-09-19T02:36:07;1.40;;;1.40;;
4089;SDS011;2059;48.538;12.146;2022-09-19T02:41:17;2.67;;;2.57;;
4089;SDS011;2059;48.538;12.146;2022-09-19T02:46:24;2.23;;;2.23;;
4089;SDS011;2059;48.538;12.146;2022-09-19T02:51:34;2.70;;;2.60;;
4089;SDS011;2059;48.538;12.146;2022-09-19T02:56:39;2.50;;;2.50;;
4089;SDS011;2059;48.538;12.146;2022-09-19T03:01:46;1.87;;;1.87;;
4089;SDS011;2059;48.538;12.146;2022-09-19T03:06:51;1.80;;;1.80;;
4089;SDS011;2059;48.538;12.146;2022-09-19T03:11:58;1.50;;;1.50;;
4089;SDS011;2059;48.538;12.146;2022-09-19T03:17:07;1.57;;;1.57;;
4089;SDS011;2059;48.538;12.146;2022-09-19T03:22:09;1.50;;;1.50;;
4089;SDS011;2059;48.538;12.146;2022-09-19T03:27:11;2.20;;;2.00;;
4089;SDS011;2059;48.538;12.146;2022-09-19T03:32:14;2.00;;;1.90;;
4089;SDS011;2059;48.538;12.146;2022-09-19T03:37:16;2.30;;;2.20;;
4089;SDS011;2059;48.538;12.146;2022-09-19T03:42:18;2.60;;;2.40;;
4089;SDS011;2059;48.538;12.146;2022-09-19T03:47:21;2.73;;;2.63;;
4089;SDS011;2059;48.538;12.146;2022-09-19T03:52:23;2.67;;;2.57;;
4089;SDS011;2059;48.538;12.146;2022-09-19T03:57:26;2.60;;;2.50;;
4089;SDS011;2059;48.538;12.146;2022-09-19T04:02:29;2.70;;;2.60;;
4089;SDS011;2059;48.538;12.146;2022-09-19T04:07:31;2.73;;;2.53;;
4089;SDS011;2059;48.538;12.146;2022-09-19T04:12:33;2.93;;;2.80;;
4089;SDS011;2059;48.538;12.146;2022-09-19T04:17:36;3.03;;;2.83;;
4089;SDS011;2059;48.538;12.146;2022-09-19T04:22:38;3.20;;;2.90;;
4089;SDS011;2059;48.538;12.146;2022-09-19T04:27:39;3.10;;;2.90;;
4089;SDS011;2059;48.538;12.146;2022-09-19T04:32:43;3.37;;;2.80;;
4089;SDS011;2059;48.538;12.146;2022-09-19T04:37:45;3.97;;;2.90;;
4089;SDS011;2059;48.538;12.146;2022-09-19T04:42:47;3.30;;;3.00;;
4089;SDS011;2059;48.538;12.146;2022-09-19T04:47:50;6.97;;;3.20;;
4089;SDS011;2059;48.538;12.146;2022-09-19T04:52:52;3.43;;;3.17;;
4089;SDS011;2059;48.538;12.146;2022-09-19T04:57:56;3.17;;;3.00;;
4089;SDS011;2059;48.538;12.146;2022-09-19T05:03:02;3.80;;;3.50;;
4089;SDS011;2059;48.538;12.146;2022-09-19T05:08:06;6.33;;;3.87;;
4089;SDS011;2059;48.538;12.146;2022-09-19T05:13:07;4.17;;;3.40;;
4089;SDS011;2059;48.538;12.146;2022-09-19T05:18:11;5.17;;;3.20;;
4089;SDS011;2059;48.538;12.146;2022-09-19T05:23:13;3.53;;;3.13;;
4089;SDS011;2059;48.538;12.146;2022-09-19T05:28:15;3.77;;;3.40;;
4089;SDS011;2059;48.538;12.146;2022-09-19T05:33:20;3.87;;;3.50;;
4089;SDS011;2059;48.538;12.146;2022-09-19T05:38:26;3.83;;;3.50;;
4089;SDS011;2059;48.538;12.146;2022-09-19T05:43:29;4.63;;;3.60;;
4089;SDS011;2059;48.538;12.146;2022-09-19T05:48:32;6.50;;;3.53;;
4089;SDS011;2059;48.538;12.146;2022-09-19T05:53:36;5.53;;;4.17;;
4089;SDS011;2059;48.538;12.146;2022-09-19T05:58:53;6.07;;;4.10;;
4089;SDS011;2059;48.538;12.146;2022-09-19T06:03:57;4.00;;;3.70;;
4089;SDS011;2059;48.538;12.146;2022-09-19T06:09:01;5.93;;;4.23;;
4089;SDS011;2059;48.538;12.146;2022-09-19T06:14:03;6.73;;;3.87;;
4089;SDS011;2059;48.538;12.146;2022-09-19T06:19:18;6.37;;;3.80;;
4089;SDS011;2059;48.538;12.146;2022-09-19T06:24:20;9.10;;;4.03;;
4089;SDS011;2059;48.538;12.146;2022-09-19T06:29:22;4.20;;;3.90;;
4089;SDS011;2059;48.538;12.146;2022-09-19T06:34:25;7.63;;;3.90;;
4089;SDS011;2059;48.538;12.146;2022-09-19T06:39:27;5.10;;;4.17;;
4089;SDS011;2059;48.538;12.146;2022-09-19T06:44:28;5.13;;;4.60;;
4089;SDS011;2059;48.538;12.146;2022-09-19T06:49:32;5.20;;;4.70;;
4089;SDS011;2059;48.538;12.146;2022-09-19T06:54:35;6.47;;;5.03;;
4089;SDS011;2059;48.538;12.146;2022-09-19T06:59:36;6.00;;;5.20;;
4089;SDS011;2059;48.538;12.146;2022-09-19T07:04:39;5.57;;;5.17;;
4089;SDS011;2059;48.538;12.146;2022-09-19T07:09:41;6.80;;;5.80;;
4089;SDS011;2059;48.538;12.146;2022-09-19T07:14:43;5.90;;;5.40;;
4089;SDS011;2059;48.538;12.146;2022-09-19T07:19:46;5.33;;;4.80;;
4089;SDS011;2059;48.538;12.146;2022-09-19T07:24:48;7.20;;;5.43;;
4089;SDS011;2059;48.538;12.146;2022-09-19T07:29:50;11.53;;;5.27;;
4089;SDS011;2059;48.538;12.146;2022-09-19T07:34:53;9.70;;;5.40;;
4089;SDS011;2059;48.538;12.146;2022-09-19T07:39:55;7.27;;;5.70;;
4089;SDS011;2059;48.538;12.146;2022-09-19T07:44:57;6.30;;;5.70;;
4089;SDS011;2059;48.538;12.146;2022-09-19T07:50:00;4.87;;;4.47;;
4089;SDS011;2059;48.538;12.146;2022-09-19T07:55:02;6.97;;;5.30;;
4089;SDS011;2059;48.538;12.146;2022-09-19T08:00:05;5.10;;;4.60;;
4089;SDS011;2059;48.538;12.146;2022-09-19T08:05:10;5.97;;;4.70;;
4089;SDS011;2059;48.538;12.146;2022-09-19T08:10:11;5.13;;;4.73;;
4089;SDS011;2059;48.538;12.146;2022-09-19T08:15:16;5.60;;;4.67;;
4089;SDS011;2059;48.538;12.146;2022-09-19T08:20:20;6.43;;;4.43;;
4089;SDS011;2059;48.538;12.146;2022-09-19T08:25:22;6.23;;;4.60;;
4089;SDS011;2059;48.538;12.146;2022-09-19T08:30:25;9.50;;;4.90;;
4089;SDS011;2059;48.538;12.146;2022-09-19T08:35:30;5.53;;;4.30;;
4089;SDS011;2059;48.538;12.146;2022-09-19T08:40:46;6.37;;;4.83;;
4089;SDS011;2059;48.538;12.146;2022-09-19T08:46:04;5.30;;;4.80;;
4089;SDS011;2059;48.538;12.146;2022-09-19T08:51:14;11.53;;;5.73;;
4089;SDS011;2059;48.538;12.146;2022-09-19T08:56:20;6.03;;;5.07;;
4089;SDS011;2059;48.538;12.146;2022-09-19T09:01:23;5.53;;;4.90;;
4089;SDS011;2059;48.538;12.146;2022-09-19T09:06:31;4.67;;;4.00;;
4089;SDS011;2059;48.538;12.146;2022-09-19T09:11:40;6.13;;;3.93;;
4089;SDS011;2059;48.538;12.146;2022-09-19T09:16:55;6.90;;;3.70;;
4089;SDS011;2059;48.538;12.146;2022-09-19T09:22:11;16.10;;;8.60;;
4089;SDS011;2059;48.538;12.146;2022-09-19T09:27:24;13.43;;;5.80;;
4089;SDS011;2059;48.538;12.146;2022-09-19T09:32:32;13.73;;;6.27;;
4089;SDS011;2059;48.538;12.146;2022-09-19T09:37:37;16.27;;;7.00;;
4089;SDS011;2059;48.538;12.146;2022-09-19T09:42:43;9.37;;;6.10;;
4089;SDS011;2059;48.538;12.146;2022-09-19T09:47:50;5.00;;;3.83;;
4089;SDS011;2059;48.538;12.146;2022-09-19T09:53:00;4.70;;;3.87;;
4089;SDS011;2059;48.538;12.146;2022-09-19T09:58:10;5.17;;;4.80;;
4089;SDS011;2059;48.538;12.146;2022-09-19T10:03:19;6.20;;;3.70;;
4089;SDS011;2059;48.538;12.146;2022-09-19T10:08:42;5.00;;;4.50;;
4089;SDS011;2059;48.538;12.146;2022-09-19T10:13:56;4.43;;;4.00;;
4089;SDS011;2059;48.538;12.146;2022-09-19T10:19:03;8.33;;;4.17;;
4089;SDS011;2059;48.538;12.146;2022-09-19T10:24:41;4.40;;;3.93;;
4089;SDS011;2059;48.538;12.146;2022-09-19T10:29:48;9.33;;;4.30;;
4089;SDS011;2059;48.538;12.146;2022-09-19T10:34:52;6.90;;;3.87;;
4089;SDS011;2059;48.538;12.146;2022-09-19T10:40:00;4.37;;;3.97;;
4089;SDS011;2059;48.538;12.146;2022-09-19T10:45:13;4.87;;;3.33;;
4089;SDS011;2059;48.538;12.146;2022-09-19T10:50:19;6.57;;;3.20;;
4089;SDS011;2059;48.538;12.146;2022-09-19T10:55:22;4.23;;;3.33;;
4089;SDS011;2059;48.538;12.146;2022-09-19T11:00:25;12.30;;;3.87;;
4089;SDS011;2059;48.538;12.146;2022-09-19T11:05:29;4.57;;;3.67;;
4089;SDS011;2059;48.538;12.146;2022-09-19T11:10:38;7.50;;;3.70;;
4089;SDS011;2059;48.538;12.146;2022-09-19T11:15:45;4.90;;;4.40;;
4089;SDS011;2059;48.538;12.146;2022-09-19T11:21:20;5.17;;;3.10;;
4089;SDS011;2059;48.538;12.146;2022-09-19T11:26:40;4.07;;;3.30;;
4089;SDS011;2059;48.538;12.146;2022-09-19T11:32:00;4.50;;;3.20;;
4089;SDS011;2059;48.538;12.146;2022-09-19T11:37:14;7.50;;;3.40;;
4089;SDS011;2059;48.538;12.146;2022-09-19T11:42:41;4.33;;;3.70;;
4089;SDS011;2059;48.538;12.146;2022-09-19T11:47:58;6.27;;;3.57;;
4089;SDS011;2059;48.538;12.146;2022-09-19T11:53:18;4.77;;;4.27;;
4089;SDS011;2059;48.538;12.146;2022-09-19T11:58:31;5.50;;;4.40;;
4089;SDS011;2059;48.538;12.146;2022-09-19T12:03:50;8.23;;;4.30;;
4089;SDS011;2059;48.538;12.146;2022-09-19T12:09:08;3.50;;;3.20;;
4089;SDS011;2059;48.538;12.146;2022-09-19T12:14:17;5.07;;;3.50;;
4089;SDS011;2059;48.538;12.146;2022-09-19T12:19:24;6.53;;;3.73;;
4089;SDS011;2059;48.538;12.146;2022-09-19T12:24:35;5.47;;;3.30;;
4089;SDS011;2059;48.538;12.146;2022-09-19T12:29:56;3.43;;;3.10;;
4089;SDS011;2059;48.538;12.146;2022-09-19T12:35:07;3.30;;;2.90;;
4089;SDS011;2059;48.538;12.146;2022-09-19T12:40:17;4.00;;;3.03;;
4089;SDS011;2059;48.538;12.146;2022-09-19T12:45:27;6.73;;;3.30;;
4089;SDS011;2059;48.538;12.146;2022-09-19T12:50:34;3.80;;;3.50;;
4089;SDS011;2059;48.538;12.146;2022-09-19T12:55:42;3.30;;;3.10;;
4089;SDS011;2059;48.538;12.146;2022-09-19T13:01:00;4.73;;;3.30;;
4089;SDS011;2059;48.538;12.146;2022-09-19T13:06:15;3.83;;;3.50;;
4089;SDS011;2059;48.538;12.146;2022-09-19T13:11:20;3.40;;;3.20;;
4089;SDS011;2059;48.538;12.146;2022-09-19T13:16:30;6.07;;;3.30;;
4089;SDS011;2059;48.538;12.146;2022-09-19T13:21:35;3.37;;;3.10;;
4089;SDS011;2059;48.538;12.146;2022-09-19T13:26:56;3.37;;;3.07;;
4089;SDS011;2059;48.538;12.146;2022-09-19T13:31:59;2.87;;;2.77;;
4089;SDS011;2059;48.538;12.146;2022-09-19T13:37:07;3.10;;;2.90;;
4089;SDS011;2059;48.538;12.146;2022-09-19T13:42:49;3.83;;;3.47;;
4089;SDS011;2059;48.538;12.146;2022-09-19T13:47:58;3.57;;;3.30;;
4089;SDS011;2059;48.538;12.146;2022-09-19T13:53:04;3.73;;;3.40;;
4089;SDS011;2059;48.538;12.146;2022-09-19T13:58:16;3.37;;;3.17;;
4089;SDS011;2059;48.538;12.146;2022-09-19T14:03:30;3.20;;;3.00;;
4089;SDS011;2059;48.538;12.146;2022-09-19T14:08:33;3.50;;;3.20;;
4089;SDS011;2059;48.538;12.146;2022-09-19T14:13:35;3.73;;;3.43;;
4089;SDS011;2059;48.538;12.146;2022-09-19T14:18:49;3.97;;;2.90;;
4089;SDS011;2059;48.538;12.146;2022-09-19T14:23:55;3.03;;;2.83;;
4089;SDS011;2059;48.538;12.146;2022-09-19T14:29:01;3.47;;;3.17;;
4089;SDS011;2059;48.538;12.146;2022-09-19T14:34:26;3.07;;;2.87;;
4089;SDS011;2059;48.538;12.146;2022-09-19T14:45:30;3.97;;;3.10;;
4089;SDS011;2059;48.538;12.146;2022-09-19T14:50:44;3.40;;;3.10;;
4089;SDS011;2059;48.538;12.146;2022-09-19T14:55:51;3.50;;;3.20;;
4089;SDS011;2059;48.538;12.146;2022-09-19T15:00:59;4.73;;;3.10;;
4089;SDS011;2059;48.538;12.146;2022-09-19T15:06:15;3.37;;;3.07;;
4089;SDS011;2059;48.538;12.146;2022-09-19T15:11:18;3.07;;;2.87;;
4089;SDS011;2059;48.538;12.146;2022-09-19T15:16:20;3.37;;;3.20;;
4089;SDS011;2059;48.538;12.146;2022-09-19T15:21:25;3.30;;;3.10;;
4089;SDS011;2059;48.538;12.146;2022-09-19T15:26:29;4.90;;;3.10;;
4089;SDS011;2059;48.538;12.146;2022-09-19T15:31:43;5.10;;;3.13;;
4089;SDS011;2059;48.538;12.146;2022-09-19T15:36:47;3.67;;;3.37;;
4089;SDS011;2059;48.538;12.146;2022-09-19T15:41:49;4.00;;;3.33;;
4089;SDS011;2059;48.538;12.146;2022-09-19T15:46:50;3.67;;;3.00;;
4089;SDS011;2059;48.538;12.146;2022-09-19T15:52:05;3.50;;;3.00;;
4089;SDS011;2059;48.538;12.146;2022-09-19T15:57:12;3.70;;;3.37;;
4089;SDS011;2059;48.538;12.146;2022-09-19T16:02:32;3.00;;;2.70;;
4089;SDS011;2059;48.538;12.146;2022-09-19T16:07:37;5.03;;;3.30;;
4089;SDS011;2059;48.538;12.146;2022-09-19T16:12:57;4.40;;;3.37;;
4089;SDS011;2059;48.538;12.146;2022-09-19T16:18:05;8.43;;;3.50;;
4089;SDS011;2059;48.538;12.146;2022-09-19T16:23:15;3.93;;;3.07;;
4089;SDS011;2059;48.538;12.146;2022-09-19T16:28:21;3.90;;;3.60;;
4089;SDS011;2059;48.538;12.146;2022-09-19T16:33:32;4.30;;;3.40;;
4089;SDS011;2059;48.538;12.146;2022-09-19T16:38:37;3.57;;;2.90;;
4089;SDS011;2059;48.538;12.146;2022-09-19T16:43:40;3.60;;;3.30;;
4089;SDS011;2059;48.538;12.146;2022-09-19T16:48:43;5.07;;;3.40;;
4089;SDS011;2059;48.538;12.146;2022-09-19T16:53:46;7.77;;;3.50;;
4089;SDS011;2059;48.538;12.146;2022-09-19T16:58:48;3.70;;;3.40;;
4089;SDS011;2059;48.538;12.146;2022-09-19T17:03:49;4.03;;;3.60;;
4089;SDS011;2059;48.538;12.146;2022-09-19T17:08:52;3.80;;;3.40;;
4089;SDS011;2059;48.538;12.146;2022-09-19T17:13:54;3.83;;;3.40;;
4089;SDS011;2059;48.538;12.146;2022-09-19T17:18:56;5.07;;;3.80;;
4089;SDS011;2059;48.538;12.146;2022-09-19T17:23:59;5.53;;;3.83;;
4089;SDS011;2059;48.538;12.146;2022-09-19T17:29:01;3.93;;;3.60;;
4089;SDS011;2059;48.538;12.146;2022-09-19T17:34:03;7.30;;;4.37;;
4089;SDS011;2059;48.538;12.146;2022-09-19T17:39:07;4.23;;;3.83;;
4089;SDS011;2059;48.538;12.146;2022-09-19T17:44:09;4.10;;;3.70;;
4089;SDS011;2059;48.538;12.146;2022-09-19T17:49:11;4.40;;;3.47;;
4089;SDS011;2059;48.538;12.146;2022-09-19T17:54:15;3.60;;;3.30;;
4089;SDS011;2059;48.538;12.146;2022-09-19T17:59:18;6.10;;;5.47;;
4089;SDS011;2059;48.538;12.146;2022-09-19T18:04:20;5.17;;;4.03;;
4089;SDS011;2059;48.538;12.146;2022-09-19T18:09:23;6.67;;;3.80;;
4089;SDS011;2059;48.538;12.146;2022-09-19T18:14:25;4.93;;;4.30;;
4089;SDS011;2059;48.538;12.146;2022-09-19T18:19:27;5.10;;;4.60;;
4089;SDS011;2059;48.538;12.146;2022-09-19T18:24:32;4.40;;;4.00;;
4089;SDS011;2059;48.538;12.146;2022-09-19T18:29:35;4.20;;;3.87;;
4089;SDS011;2059;48.538;12.146;2022-09-19T18:34:36;4.13;;;3.70;;
4089;SDS011;2059;48.538;12.146;2022-09-19T18:39:40;3.87;;;3.53;;
4089;SDS011;2059;48.538;12.146;2022-09-19T18:44:41;4.20;;;3.80;;
4089;SDS011;2059;48.538;12.146;2022-09-19T18:49:43;4.30;;;3.33;;
4089;SDS011;2059;48.538;12.146;2022-09-19T18:54:46;4.03;;;3.73;;
4089;SDS011;2059;48.538;12.146;2022-09-19T18:59:48;4.77;;;4.30;;
4089;SDS011;2059;48.538;12.146;2022-09-19T19:04:50;7.90;;;6.03;;
4089;SDS011;2059;48.538;12.146;2022-09-19T19:09:53;7.63;;;5.60;;
4089;SDS011;2059;48.538;12.146;2022-09-19T19:14:55;5.83;;;4.63;;
4089;SDS011;2059;48.538;12.146;2022-09-19T19:19:57;4.80;;;4.30;;
4089;SDS011;2059;48.538;12.146;2022-09-19T19:25:00;4.33;;;3.97;;
4089;SDS011;2059;48.538;12.146;2022-09-19T19:30:02;5.53;;;4.27;;
4089;SDS011;2059;48.538;12.146;2022-09-19T19:35:04;5.00;;;4.40;;
4089;SDS011;2059;48.538;12.146;2022-09-19T19:40:08;4.90;;;4.40;;
4089;SDS011;2059;48.538;12.146;2022-09-19T19:45:10;9.13;;;4.33;;
4089;SDS011;2059;48.538;12.146;2022-09-19T19:50:11;6.43;;;4.57;;
4089;SDS011;2059;48.538;12.146;2022-09-19T19:55:15;7.73;;;4.20;;
4089;SDS011;2059;48.538;12.146;2022-09-19T20:00:17;7.00;;;4.60;;
4089;SDS011;2059;48.538;12.146;2022-09-19T20:05:18;6.07;;;4.63;;
4089;SDS011;2059;48.538;12.146;2022-09-19T20:10:22;4.90;;;4.50;;
4089;SDS011;2059;48.538;12.146;2022-09-19T20:15:23;5.50;;;4.00;;
4089;SDS011;2059;48.538;12.146;2022-09-19T20:20:25;6.10;;;3.80;;
4089;SDS011;2059;48.538;12.146;2022-09-19T20:25:28;5.90;;;4.10;;
4089;SDS011;2059;48.538;12.146;2022-09-19T20:30:30;3.80;;;3.50;;
4089;SDS011;2059;48.538;12.146;2022-09-19T20:35:32;4.57;;;4.10;;
4089;SDS011;2059;48.538;12.146;2022-09-19T20:40:35;5.60;;;4.50;;
4089;SDS011;2059;48.538;12.146;2022-09-19T20:45:37;4.90;;;3.93;;
4089;SDS011;2059;48.538;12.146;2022-09-19T20:50:48;4.30;;;3.90;;
4089;SDS011;2059;48.538;12.146;2022-09-19T20:55:52;6.37;;;3.73;;
4089;SDS011;2059;48.538;12.146;2022-09-19T21:00:57;5.43;;;3.70;;
4089;SDS011;2059;48.538;12.146;2022-09-19T21:06:00;4.13;;;3.23;;
4089;SDS011;2059;48.538;12.146;2022-09-19T21:11:05;4.27;;;3.10;;
4089;SDS011;2059;48.538;12.146;2022-09-19T21:16:09;3.30;;;3.10;;
4089;SDS011;2059;48.538;12.146;2022-09-19T21:21:12;4.07;;;3.33;;
4089;SDS011;2059;48.538;12.146;2022-09-19T21:26:17;3.20;;;3.00;;
4089;SDS011;2059;48.538;12.146;2022-09-19T21:31:20;3.30;;;3.00;;
4089;SDS011;2059;48.538;12.146;2022-09-19T21:36:23;3.20;;;3.00;;
4089;SDS011;2059;48.538;12.146;2022-09-19T21:41:28;3.30;;;3.00;;
4089;SDS011;2059;48.538;12.146;2022-09-19T21:46:32;2.80;;;2.60;;
4089;SDS011;2059;48.538;12.146;2022-09-19T21:51:36;3.10;;;2.87;;
4089;SDS011;2059;48.538;12.146;2022-09-19T21:56:39;3.30;;;3.00;;
4089;SDS011;2059;48.538;12.146;2022-09-19T22:01:41;3.53;;;3.20;;
4089;SDS011;2059;48.538;12.146;2022-09-19T22:06:43;3.27;;;3.00;;
4089;SDS011;2059;48.538;12.146;2022-09-19T22:16:49;4.63;;;3.10;;
4089;SDS011;2059;48.538;12.146;2022-09-19T22:21:50;3.17;;;2.87;;
4089;SDS011;2059;48.538;12.146;2022-09-19T22:26:52;3.47;;;2.80;;
4089;SDS011;2059;48.538;12.146;2022-09-19T22:31:55;4.20;;;2.77;;
4089;SDS011;2059;48.538;12.146;2022-09-19T22:36:57;4.57;;;3.10;;
4089;SDS011;2059;48.538;12.146;2022-09-19T22:41:59;4.70;;;3.30;;
4089;SDS011;2059;48.538;12.146;2022-09-19T22:47:02;3.73;;;3.30;;
4089;SDS011;2059;48.538;12.146;2022-09-19T22:52:04;3.87;;;3.43;;
4089;SDS011;2059;48.538;12.146;2022-09-19T22:57:06;3.30;;;3.03;;
4089;SDS011;2059;48.538;12.146;2022-09-19T23:02:09;2.87;;;2.67;;
4089;SDS011;2059;48.538;12.146;2022-09-19T23:07:11;3.57;;;3.27;;
4089;SDS011;2059;48.538;12.146;2022-09-19T23:12:12;4.33;;;2.80;;
4089;SDS011;2059;48.538;12.146;2022-09-19T23:17:16;4.60;;;2.97;;
4089;SDS011;2059;48.538;12.146;2022-09-19T23:22:17;3.23;;;2.80;;
4089;SDS011;2059;48.538;12.146;2022-09-19T23:27:20;3.23;;;2.83;;
4089;SDS011;2059;48.538;12.146;2022-09-19T23:32:23;2.70;;;2.60;;
4089;SDS011;2059;48.538;12.146;2022-09-19T23:37:25;2.77;;;2.60;;
4089;SDS011;2059;48.538;12.146;2022-09-19T23:42:27;2.87;;;2.70;;
4089;SDS011;2059;48.538;12.146;2022-09-19T23:47:30;3.27;;;2.80;;
4089;SDS011;2059;48.538;12.146;2022-09-19T23:52:31;3.73;;;2.80;;
4089;SDS011;2059;48.538;12.146;2022-09-19T23:57:33;3.70;;;2.87;;
